Pasadena, TX

9:05 AM CDT en Agosto 29, 2014 (GMT -0500)
London | Change Station
CLOSE
Current Station
Estación meteorológica personal
Location: Pasadena, TX
Altura: 39 ft
Estaciones meteorológicas cercanas

Alt 39 ft 29.69 °N, 95.18 °W | Updated 13 minutes ago

Mostly Cloudy
Muy nublado
81.1 ° F
Sensación térmica 89 ° F
N
6.3
Viento Variable Viento desde Este

Hoy
Alta -- | Baja -- ° F
--% Posibilidad de precipitaciones
Ayer
Alta -- | Baja -- ° F
Precip. -- pul
6:56 AM 7:46 PM
Creciente, 14% visible
Presión 29.90 pul
Visibilidad 7.0 Millas
Nubes Muy nublado 2200 ft
Muy nublado 12000 ft
Índice de calor 89 ° F
Punto de rocío 78 ° F
Humedad 90%
Precipitaciones 0.00 pul
Espesor de la nieve No disponible.
UV 1 de una escala de 12
Polen 6.10 de una escala de 12
Ozono Buena
PM2.5 Buena
Flu Activity No disponible.
METAR KEFD 291350Z 04005KT 7SM BKN022CB BKN120 28/26 A2990 RMK OCNL LTGCG N TS N MOV E

More Conditions Fewer Conditions

Presión 29.90 pul
Visibilidad 7.0 Millas
Nubes Muy nublado 2200 ft
Muy nublado 12000 ft
Índice de calor 89 ° F
Punto de rocío 78 ° F
Humedad 90%
Precipitaciones 0.00 pul
Espesor de la nieve No disponible.
UV 1 de una escala de 12
Polen 6.10 de una escala de 12
Ozono Buena
PM2.5 Buena
Flu Activity No disponible.
METAR KEFD 291350Z 04005KT 7SM BKN022CB BKN120 28/26 A2990 RMK OCNL LTGCG N TS N MOV E

More Conditions Fewer Conditions

10-Day Weather Forecast

Almanac

Astronomía

Aug. 29, 2014 Salida Puesta
Hora real 6:56 AM CDT 7:46 PM CDT
Crepúsculo civil 6:31 AM CDT 8:10 PM CDT
Crepúsculo náutico 6:03 AM CDT 8:39 PM CDT
Crepúsculo astronómico 5:33 AM CDT 9:08 PM CDT
Luna 10:26 AM CDT 10:06 PM CDT
Horas de luz 13h 38m
Horas de luz
12h 49m
Tomorrow will be 1m 41s shorter.
Creciente, 14% of the Moon is Illuminated
Hoy
Creciente
Sep 2
Cuarto creciente
Sep 8
Luna llena
Sep 15
Cuarto menguante
Sep 24
Nueva

Extremos de hoy

Máximos del estado Bajos del estado

Community

WunderPhotos

Upload Photos

1,748,240 ¡fotos cargadas!

Nearby

Calidad del aire

  Calidad del aire Índice AQ Contaminante
Ayer Buena
OZONE
Ayer Buena
PM2.5
Real Buena
PM2.5
Real Buena
OZONE
Viernes Buena
OZONE
Viernes Buena
PM10
Sábado Buena
OZONE
Sábado Buena
PM10
Domingo Buena
OZONE
Domingo Buena
PM10

Grosos de nieve

Estación Profundido Altura
No tenemos constancia de nieve nueva.

Actividad de terremotos

Ciudad Distance Mag. Tiempo y dato
No hay informes recientes de la actividad sísmica.
Magnitud mínima muestra es 2,5.

Temperaturas de aguas costeras

Lugar Temperatura
Eagle Point, TX 82.9 ° F
USCG Freeport, TX 82.9 ° F
Galveston Pier TX 84.9 ° F
Galveston Bay (North Jetty), TX 82.9 ° F
Rollover Pass, TX 80.1 ° F

Estaciones meteorológicas cercanas